Time;durP1;ratioP1;P1;durP2;ratioP2;P2;SDS_P1;SDS_P2;PMS_P1;PMS_P2;Temp;Humidity;BMP_temperature;BMP_pressure;BME280_temperature;BME280_humidity;BME280_pressure;Samples;Min_cycle;Max_cycle;Signal;HPM_P1;HPM_P2
2022/04/03 00:00:54;;;;;;;19.98;12.13;;;1.80;88.40;;;;;;5135707;27;20281;-57
2022/04/03 00:03:20;;;;;;;18.17;12.95;;;1.80;88.50;;;;;;5136489;27;20202;-57
2022/04/03 00:05:49;;;;;;;18.30;12.60;;;1.80;88.80;;;;;;5136567;27;20202;-58
2022/04/03 00:08:15;;;;;;;17.63;12.50;;;1.90;88.60;;;;;;5136506;27;20205;-57
2022/04/03 00:10:45;;;;;;;21.70;13.43;;;2.00;88.10;;;;;;5136371;27;20279;-58
2022/04/03 00:13:12;;;;;;;19.25;12.65;;;2.00;87.90;;;;;;5135035;27;20298;-58
2022/04/03 00:15:42;;;;;;;20.23;13.18;;;2.10;87.60;;;;;;5136238;27;20242;-58
2022/04/03 00:18:09;;;;;;;23.42;12.88;;;2.10;87.40;;;;;;5136574;27;20251;-57
2022/04/03 00:20:36;;;;;;;22.85;13.07;;;2.10;87.70;;;;;;5136300;27;20293;-57
2022/04/03 00:23:06;;;;;;;20.50;12.30;;;2.10;87.10;;;;;;5136410;27;20294;-57
2022/04/03 00:25:33;;;;;;;17.60;12.15;;;1.80;87.30;;;;;;5136205;27;20261;-57
2022/04/03 00:28:00;;;;;;;20.15;12.93;;;1.90;88.10;;;;;;5134802;27;20756;-57
2022/04/03 00:30:27;;;;;;;18.05;12.25;;;2.00;87.90;;;;;;5135736;27;20379;-57
2022/04/03 00:32:54;;;;;;;24.33;13.70;;;1.90;87.50;;;;;;5136143;27;20279;-56
2022/04/03 00:35:21;;;;;;;17.88;12.35;;;1.80;87.90;;;;;;5135955;27;20195;-57
2022/04/03 00:37:48;;;;;;;18.75;12.77;;;1.80;88.00;;;;;;5135917;27;20657;-57
2022/04/03 00:40:17;;;;;;;23.48;13.48;;;1.90;88.30;;;;;;5135847;27;20222;-57
2022/04/03 00:42:45;;;;;;;22.63;12.68;;;2.00;88.00;;;;;;5134535;27;20206;-57
2022/04/03 00:45:12;;;;;;;21.02;12.55;;;1.90;87.50;;;;;;5135776;27;20675;-57
2022/04/03 00:47:40;;;;;;;20.88;13.15;;;1.90;87.80;;;;;;5135621;27;20574;-57
2022/04/03 00:50:07;;;;;;;19.42;12.07;;;1.90;88.00;;;;;;5135546;27;20230;-57
2022/04/03 00:52:34;;;;;;;20.42;12.40;;;2.10;87.80;;;;;;5135556;27;20199;-57
2022/04/03 00:55:01;;;;;;;21.08;13.80;;;2.10;87.50;;;;;;5135608;27;20198;-57
2022/04/03 00:57:29;;;;;;;23.48;14.07;;;2.00;87.10;;;;;;5134046;27;20223;-57
2022/04/03 00:59:58;;;;;;;19.25;12.95;;;1.80;86.80;;;;;;5135422;27;20234;-57
2022/04/03 01:02:26;;;;;;;21.40;12.70;;;1.80;87.90;;;;;;5135426;27;20246;-57
2022/04/03 01:04:52;;;;;;;18.88;11.85;;;1.80;87.80;;;;;;5135419;27;20199;-57
2022/04/03 01:07:20;;;;;;;20.90;13.00;;;1.80;87.90;;;;;;5135287;27;20635;-57
2022/04/03 01:09:47;;;;;;;26.42;13.50;;;1.80;87.90;;;;;;5135247;27;20230;-57
2022/04/03 01:12:13;;;;;;;18.38;12.40;;;1.80;87.80;;;;;;5132716;27;20199;-57
2022/04/03 01:14:44;;;;;;;19.27;11.80;;;1.90;87.90;;;;;;5135164;27;20233;-57
2022/04/03 01:17:13;;;;;;;18.85;12.75;;;2.00;87.60;;;;;;5135007;27;20209;-57
2022/04/03 01:19:41;;;;;;;21.48;13.80;;;2.00;87.30;;;;;;5135052;27;20203;-56
2022/04/03 01:22:09;;;;;;;25.55;13.93;;;2.00;86.90;;;;;;5135067;27;20289;-57
2022/04/03 01:24:36;;;;;;;22.90;13.07;;;2.00;87.10;;;;;;5135055;27;20279;-57
2022/04/03 01:27:06;;;;;;;22.88;13.52;;;2.00;86.60;;;;;;5133570;27;20209;-57
2022/04/03 01:29:33;;;;;;;21.27;12.70;;;2.00;86.80;;;;;;5134639;27;20226;-56
2022/04/03 01:31:59;;;;;;;21.33;12.88;;;1.90;86.40;;;;;;5134546;27;20234;-56
2022/04/03 01:34:26;;;;;;;22.58;13.35;;;2.00;86.90;;;;;;5134729;27;20290;-56
2022/04/03 01:36:53;;;;;;;22.33;13.95;;;2.00;86.50;;;;;;5134760;27;20289;-56
2022/04/03 01:39:20;;;;;;;22.95;13.57;;;2.00;86.60;;;;;;5134700;27;20203;-56
2022/04/03 01:41:47;;;;;;;23.33;12.73;;;2.10;86.50;;;;;;5133414;27;20205;-57
2022/04/03 01:44:15;;;;;;;22.00;13.75;;;2.10;86.20;;;;;;5134642;27;20721;-56
2022/04/03 01:46:43;;;;;;;25.45;15.02;;;2.10;86.40;;;;;;5134322;27;20280;-56
2022/04/03 01:49:11;;;;;;;22.10;12.10;;;2.10;86.20;;;;;;5134651;27;20206;-56
2022/04/03 01:51:37;;;;;;;24.23;13.00;;;2.10;85.90;;;;;;5134551;27;20207;-56
2022/04/03 01:54:05;;;;;;;19.85;13.63;;;2.10;85.80;;;;;;5134501;27;20665;-56
2022/04/03 01:56:34;;;;;;;23.55;12.68;;;2.10;85.20;;;;;;5132936;27;20660;-56
2022/04/03 01:59:01;;;;;;;26.55;13.45;;;2.00;85.30;;;;;;5134413;27;20212;-56
2022/04/03 02:01:30;;;;;;;20.50;11.55;;;1.90;85.80;;;;;;5134025;27;20203;-56
2022/04/03 02:03:57;;;;;;;18.92;12.68;;;1.90;85.90;;;;;;5134291;27;20207;-56
2022/04/03 02:06:24;;;;;;;21.92;12.88;;;1.90;86.20;;;;;;5134231;27;20229;-56
2022/04/03 02:08:51;;;;;;;26.45;13.88;;;1.90;86.30;;;;;;5134143;27;20205;-56
2022/04/03 02:11:18;;;;;;;18.08;11.95;;;2.00;85.90;;;;;;5132729;27;20226;-56
2022/04/03 02:13:45;;;;;;;17.27;11.13;;;2.00;85.70;;;;;;5134093;27;20580;-56
2022/04/03 02:16:12;;;;;;;20.50;11.85;;;2.00;85.60;;;;;;5133971;27;20665;-56
2022/04/03 02:18:40;;;;;;;20.05;11.93;;;2.10;85.80;;;;;;5134065;27;20207;-56
2022/04/03 02:21:07;;;;;;;18.63;12.05;;;2.10;85.80;;;;;;5133929;27;20263;-56
2022/04/03 02:23:34;;;;;;;19.52;12.05;;;2.10;85.50;;;;;;5133661;27;20281;-56
2022/04/03 02:26:01;;;;;;;19.27;11.25;;;2.00;85.10;;;;;;5132578;27;20209;-56
2022/04/03 02:28:28;;;;;;;22.42;12.88;;;1.90;85.70;;;;;;5133895;27;20237;-56
2022/04/03 02:30:55;;;;;;;24.35;13.32;;;1.80;85.60;;;;;;5133532;27;20235;-56
2022/04/03 02:33:22;;;;;;;22.10;12.50;;;1.80;86.20;;;;;;5133790;27;20198;-56
2022/04/03 02:35:50;;;;;;;23.65;13.77;;;1.90;86.60;;;;;;5133874;27;20203;-56
2022/04/03 02:38:18;;;;;;;21.80;12.57;;;2.00;86.20;;;;;;5133822;27;20665;-56
2022/04/03 02:40:45;;;;;;;20.60;12.52;;;1.90;85.80;;;;;;5133814;27;20654;-56
2022/04/03 02:43:12;;;;;;;23.90;12.93;;;2.00;86.10;;;;;;5132330;27;20213;-57
2022/04/03 02:45:40;;;;;;;18.05;11.18;;;2.10;86.20;;;;;;5133580;27;20202;-56
2022/04/03 02:48:08;;;;;;;19.40;12.80;;;2.10;85.50;;;;;;5133966;27;20199;-56
2022/04/03 02:50:35;;;;;;;18.33;11.55;;;2.10;85.80;;;;;;5133564;27;20290;-56
2022/04/03 02:53:04;;;;;;;21.10;12.77;;;2.10;85.80;;;;;;5133737;27;20203;-56
2022/04/03 02:55:31;;;;;;;21.48;13.70;;;2.10;85.60;;;;;;5133493;27;20198;-56
2022/04/03 02:57:58;;;;;;;25.45;13.48;;;2.10;85.60;;;;;;5132126;27;20225;-56
2022/04/03 03:00:25;;;;;;;24.48;13.10;;;2.20;85.60;;;;;;5133657;27;20230;-56
2022/04/03 03:02:52;;;;;;;20.00;12.50;;;2.20;85.60;;;;;;5133399;27;20661;-56
2022/04/03 03:05:20;;;;;;;20.15;12.35;;;2.20;85.50;;;;;;5133623;27;20207;-56
2022/04/03 03:07:47;;;;;;;20.15;12.70;;;2.20;85.30;;;;;;5133520;27;20209;-56
2022/04/03 03:10:16;;;;;;;22.88;11.88;;;2.20;85.60;;;;;;5133283;27;20233;-56
2022/04/03 03:12:44;;;;;;;19.17;12.18;;;2.20;84.90;;;;;;5132271;27;20317;-56
2022/04/03 03:15:12;;;;;;;21.38;12.63;;;2.20;85.20;;;;;;5133544;27;20230;-56
2022/04/03 03:17:39;;;;;;;17.95;11.43;;;2.20;84.80;;;;;;5133368;27;20293;-56
2022/04/03 03:20:07;;;;;;;20.80;12.30;;;2.20;85.20;;;;;;5133425;27;20211;-56
2022/04/03 03:22:34;;;;;;;19.85;11.30;;;2.20;85.00;;;;;;5133435;27;20207;-56
2022/04/03 03:25:01;;;;;;;20.27;11.30;;;2.30;84.90;;;;;;5133504;27;20198;-56
2022/04/03 03:27:29;;;;;;;17.98;11.40;;;2.30;84.90;;;;;;5132126;27;20203;-56
2022/04/03 03:29:56;;;;;;;18.38;11.30;;;2.20;84.60;;;;;;5133186;27;20334;-56
2022/04/03 03:32:24;;;;;;;22.02;11.95;;;2.20;84.80;;;;;;5133121;27;20649;-57
2022/04/03 03:34:51;;;;;;;20.10;11.60;;;2.20;84.80;;;;;;5133360;27;20232;-56
2022/04/03 03:37:17;;;;;;;20.42;12.68;;;2.30;84.70;;;;;;5136872;27;20285;-56
2022/04/03 03:39:45;;;;;;;17.25;11.35;;;2.20;84.90;;;;;;5137153;27;20234;-56
2022/04/03 03:42:11;;;;;;;17.65;11.10;;;2.20;84.80;;;;;;5135711;27;20293;-56
2022/04/03 03:44:40;;;;;;;17.55;10.80;;;2.20;84.70;;;;;;5136953;27;20198;-56
2022/04/03 03:47:08;;;;;;;18.52;11.93;;;2.10;84.80;;;;;;5136864;27;20212;-56
2022/04/03 03:49:35;;;;;;;17.60;11.85;;;2.10;84.90;;;;;;5136935;27;20205;-56
2022/04/03 03:52:03;;;;;;;17.73;11.13;;;2.20;85.10;;;;;;5136697;27;20632;-56
2022/04/03 03:54:30;;;;;;;19.17;11.63;;;2.10;84.60;;;;;;5136890;27;20198;-56
2022/04/03 03:56:57;;;;;;;21.23;12.15;;;2.10;85.10;;;;;;5135445;27;20268;-56
2022/04/03 03:59:24;;;;;;;20.27;11.90;;;2.20;85.00;;;;;;5136814;27;20203;-56
2022/04/03 04:01:53;;;;;;;19.23;12.13;;;2.20;84.70;;;;;;5136558;27;20207;-56
2022/04/03 04:04:20;;;;;;;16.40;11.45;;;2.20;84.70;;;;;;5136604;27;20203;-56
2022/04/03 04:06:48;;;;;;;19.50;11.68;;;2.20;84.50;;;;;;5136510;27;20198;-56
2022/04/03 04:09:15;;;;;;;23.10;12.40;;;2.10;84.50;;;;;;5136540;27;20715;-56
2022/04/03 04:11:42;;;;;;;19.80;11.65;;;2.20;84.50;;;;;;5135119;27;20269;-56
2022/04/03 04:14:09;;;;;;;22.20;12.07;;;2.20;84.70;;;;;;5136467;27;20198;-56
2022/04/03 04:16:36;;;;;;;21.48;11.48;;;2.20;84.40;;;;;;5136330;27;20285;-56
2022/04/03 04:19:05;;;;;;;17.58;11.18;;;2.20;84.10;;;;;;5136214;27;20203;-56
2022/04/03 04:21:32;;;;;;;18.40;11.73;;;2.20;84.30;;;;;;5136332;27;20293;-56
2022/04/03 04:23:59;;;;;;;20.50;12.80;;;2.10;84.30;;;;;;5136332;27;20220;-55
2022/04/03 04:26:26;;;;;;;20.80;11.45;;;2.10;84.60;;;;;;5134886;27;20202;-56
2022/04/03 04:28:53;;;;;;;19.90;12.45;;;2.10;84.90;;;;;;5136213;27;20289;-56
2022/04/03 04:31:20;;;;;;;20.70;12.35;;;2.20;84.80;;;;;;5135671;27;20337;-56
2022/04/03 04:33:47;;;;;;;20.77;11.55;;;2.10;84.50;;;;;;5135957;27;20205;-56
2022/04/03 04:36:15;;;;;;;19.63;12.82;;;2.10;84.80;;;;;;5136002;27;20212;-56
2022/04/03 04:38:42;;;;;;;17.38;11.10;;;2.10;84.60;;;;;;5135909;27;20213;-56
2022/04/03 04:41:09;;;;;;;23.88;12.55;;;2.20;84.80;;;;;;5134592;27;20286;-56
2022/04/03 04:43:36;;;;;;;17.42;11.13;;;2.20;84.70;;;;;;5135865;27;20209;-56
2022/04/03 04:46:02;;;;;;;21.10;12.60;;;2.20;84.60;;;;;;5135442;27;20289;-56
2022/04/03 04:48:29;;;;;;;20.48;12.32;;;2.20;84.80;;;;;;5135870;27;20205;-56
2022/04/03 04:50:56;;;;;;;15.90;10.57;;;2.20;84.80;;;;;;5135657;27;20309;-56
2022/04/03 04:53:25;;;;;;;21.92;12.65;;;2.20;84.80;;;;;;5135735;27;20209;-56
2022/04/03 04:55:51;;;;;;;20.05;12.13;;;2.10;85.00;;;;;;5135619;27;20313;-56
2022/04/03 04:58:18;;;;;;;19.98;11.95;;;2.10;85.00;;;;;;5134480;27;20289;-56
2022/04/03 05:00:45;;;;;;;18.98;12.65;;;2.10;84.60;;;;;;5135492;27;20249;-56
2022/04/03 05:03:12;;;;;;;20.10;11.85;;;2.10;84.80;;;;;;5135418;27;20238;-56
2022/04/03 05:05:39;;;;;;;20.92;12.10;;;2.10;84.90;;;;;;5135518;27;20238;-56
2022/04/03 05:08:07;;;;;;;18.95;12.80;;;2.10;85.00;;;;;;5135328;27;20248;-56
2022/04/03 05:10:35;;;;;;;16.73;11.40;;;2.20;85.20;;;;;;5135317;27;20305;-55
2022/04/03 05:13:02;;;;;;;19.70;12.27;;;2.20;84.90;;;;;;5133982;27;20203;-56
2022/04/03 05:15:30;;;;;;;19.48;12.43;;;2.20;84.80;;;;;;5135152;27;20672;-56
2022/04/03 05:17:59;;;;;;;19.58;11.75;;;2.20;84.90;;;;;;5134967;27;20286;-56
2022/04/03 05:20:26;;;;;;;19.52;10.77;;;2.30;84.40;;;;;;5135065;27;20191;-56
2022/04/03 05:22:53;;;;;;;20.55;13.82;;;2.30;84.00;;;;;;5135104;27;20207;-56
2022/04/03 05:25:20;;;;;;;22.02;12.60;;;2.10;84.20;;;;;;5135031;27;20238;-56
2022/04/03 05:27:48;;;;;;;17.63;10.90;;;2.10;84.80;;;;;;5133558;27;20289;-56
2022/04/03 05:30:15;;;;;;;19.67;11.95;;;2.20;84.70;;;;;;5134599;27;20353;-56
2022/04/03 05:32:43;;;;;;;23.63;12.38;;;2.20;85.00;;;;;;5134794;27;20222;-56
2022/04/03 05:35:13;;;;;;;18.15;12.40;;;2.20;84.70;;;;;;5134923;27;20213;-56
2022/04/03 05:37:40;;;;;;;13.60;9.82;;;2.20;85.00;;;;;;5134916;27;20238;-56
2022/04/03 05:40:10;;;;;;;21.52;13.18;;;2.10;85.30;;;;;;5134767;27;20203;-56
2022/04/03 05:42:37;;;;;;;17.40;11.85;;;2.10;85.20;;;;;;5133222;27;20203;-56
2022/04/03 05:45:07;;;;;;;19.83;11.32;;;2.10;85.60;;;;;;5134703;27;20247;-56
2022/04/03 05:47:35;;;;;;;17.33;10.80;;;2.10;85.40;;;;;;5134489;27;20255;-56
2022/04/03 05:50:02;;;;;;;18.83;11.55;;;2.20;85.40;;;;;;5134480;27;20203;-56
2022/04/03 05:52:39;;;;;;;16.70;10.38;;;2.20;85.20;;;;;;5134468;27;20227;-56
2022/04/03 05:55:08;;;;;;;18.40;11.48;;;2.30;84.80;;;;;;5134260;27;20624;-56
2022/04/03 05:57:35;;;;;;;20.83;10.65;;;2.10;84.50;;;;;;5132876;27;20213;-56
2022/04/03 06:00:03;;;;;;;12.82;9.18;;;2.00;85.00;;;;;;5134017;27;20199;-56
2022/04/03 06:02:31;;;;;;;15.80;9.75;;;2.10;84.70;;;;;;5134115;27;20293;-56
2022/04/03 06:04:58;;;;;;;14.38;10.05;;;2.10;84.80;;;;;;5134310;27;20207;-56
2022/04/03 06:07:26;;;;;;;19.98;9.63;;;2.20;84.80;;;;;;5134162;27;20728;-56
2022/04/03 06:09:53;;;;;;;16.50;10.70;;;2.20;84.70;;;;;;5134222;27;20538;-56
2022/04/03 06:12:20;;;;;;;12.75;8.55;;;2.30;84.70;;;;;;5132899;27;20283;-56
2022/04/03 06:14:46;;;;;;;16.83;9.10;;;2.30;83.90;;;;;;5134190;27;20226;-56
2022/04/03 06:17:13;;;;;;;15.68;9.68;;;2.30;83.80;;;;;;5134087;27;20249;-56
2022/04/03 06:19:41;;;;;;;14.70;9.63;;;2.20;84.00;;;;;;5134222;27;20285;-56
2022/04/03 06:22:08;;;;;;;11.45;8.68;;;2.30;84.30;;;;;;5133961;27;20195;-56
2022/04/03 06:24:35;;;;;;;15.20;9.38;;;2.40;84.40;;;;;;5134161;27;20639;-56
2022/04/03 06:27:02;;;;;;;14.15;9.15;;;2.50;84.30;;;;;;5132780;27;20226;-56
2022/04/03 06:29:29;;;;;;;12.55;9.30;;;2.50;84.20;;;;;;5133952;27;20207;-56
2022/04/03 06:31:56;;;;;;;14.27;9.80;;;2.40;83.60;;;;;;5133744;27;20693;-56
2022/04/03 06:34:22;;;;;;;13.43;9.38;;;2.40;83.30;;;;;;5133922;27;20195;-56
2022/04/03 06:36:51;;;;;;;14.13;8.85;;;2.40;83.70;;;;;;5133756;27;20230;-56
2022/04/03 06:39:17;;;;;;;13.48;9.50;;;2.50;83.80;;;;;;5133837;27;20289;-56
2022/04/03 06:41:44;;;;;;;11.55;7.80;;;2.50;83.70;;;;;;5132606;27;20210;-56
2022/04/03 06:44:12;;;;;;;15.48;8.95;;;2.60;83.80;;;;;;5133856;27;20206;-56
2022/04/03 06:46:39;;;;;;;13.82;9.05;;;2.60;83.70;;;;;;5133669;27;20234;-56
2022/04/03 06:49:05;;;;;;;12.13;8.82;;;2.50;83.50;;;;;;5133584;27;20679;-56
2022/04/03 06:51:32;;;;;;;13.40;9.20;;;2.60;83.90;;;;;;5133809;27;20661;-56
2022/04/03 06:54:01;;;;;;;12.98;8.93;;;2.70;83.40;;;;;;5133712;27;20636;-56
2022/04/03 06:56:27;;;;;;;12.45;7.90;;;2.70;83.30;;;;;;5132366;27;20257;-57
2022/04/03 06:58:54;;;;;;;13.32;9.43;;;2.70;82.80;;;;;;5133668;27;20203;-56
2022/04/03 07:01:21;;;;;;;13.77;9.35;;;2.50;83.40;;;;;;5133584;27;20230;-56
2022/04/03 07:03:50;;;;;;;13.20;9.30;;;2.60;83.90;;;;;;5133267;27;20764;-56
2022/04/03 07:06:16;;;;;;;12.05;8.95;;;2.70;84.10;;;;;;5133588;27;20198;-56
2022/04/03 07:08:45;;;;;;;13.30;8.93;;;2.70;83.60;;;;;;5133621;27;20289;-56
2022/04/03 07:11:13;;;;;;;11.43;8.50;;;2.70;83.30;;;;;;5135901;27;20728;-56
2022/04/03 07:13:40;;;;;;;12.73;8.95;;;2.80;83.20;;;;;;5137695;27;20290;-56
2022/04/03 07:16:07;;;;;;;12.20;8.05;;;2.80;83.30;;;;;;5137615;27;20289;-56
2022/04/03 07:18:36;;;;;;;12.63;8.93;;;2.90;83.20;;;;;;5137182;27;20698;-56
2022/04/03 07:21:03;;;;;;;10.68;8.25;;;2.80;83.30;;;;;;5137412;27;20209;-56
2022/04/03 07:23:30;;;;;;;9.57;8.00;;;2.90;83.00;;;;;;5137315;27;20286;-56
2022/04/03 07:25:57;;;;;;;9.60;7.75;;;2.60;82.50;;;;;;5136909;27;20563;-56
2022/04/03 07:28:25;;;;;;;10.10;8.52;;;2.60;83.80;;;;;;5136833;27;20282;-56
2022/04/03 07:30:52;;;;;;;13.80;8.85;;;2.70;83.70;;;;;;5136980;27;20258;-56
2022/04/03 07:33:20;;;;;;;10.80;7.60;;;2.70;83.70;;;;;;5137179;27;20202;-56
2022/04/03 07:35:47;;;;;;;11.40;8.55;;;2.70;83.30;;;;;;5137060;27;20222;-56
2022/04/03 07:38:15;;;;;;;12.60;8.35;;;2.90;83.20;;;;;;5137143;27;20648;-56
2022/04/03 07:40:42;;;;;;;11.13;8.88;;;3.00;83.40;;;;;;5137287;27;20234;-56
2022/04/03 07:43:09;;;;;;;13.23;8.85;;;3.10;82.90;;;;;;5135862;27;20225;-56
2022/04/03 07:45:37;;;;;;;14.27;9.20;;;3.00;82.30;;;;;;5136895;27;20237;-57
2022/04/03 07:48:04;;;;;;;13.45;9.75;;;3.10;82.70;;;;;;5136801;27;20230;-56
2022/04/03 07:50:31;;;;;;;13.25;9.85;;;2.90;81.80;;;;;;5136951;27;20198;-56
2022/04/03 07:52:59;;;;;;;13.00;8.75;;;2.90;82.00;;;;;;5136805;27;20246;-57
2022/04/03 07:55:25;;;;;;;14.82;9.38;;;2.90;82.60;;;;;;5136761;27;20684;-56
2022/04/03 07:57:52;;;;;;;11.00;9.02;;;2.80;82.10;;;;;;5135405;27;20209;-56
2022/04/03 08:00:19;;;;;;;13.27;9.38;;;2.90;82.50;;;;;;5136608;27;20213;-56
2022/04/03 08:02:47;;;;;;;13.25;9.18;;;3.00;82.80;;;;;;5136486;27;20707;-56
2022/04/03 08:05:15;;;;;;;13.57;9.50;;;3.10;82.30;;;;;;5136667;27;20202;-56
2022/04/03 08:07:43;;;;;;;10.75;7.90;;;3.20;82.40;;;;;;5136648;27;20198;-56
2022/04/03 08:10:12;;;;;;;11.82;9.15;;;3.20;82.30;;;;;;5136543;27;20207;-56
2022/04/03 08:12:41;;;;;;;15.20;9.18;;;3.20;81.90;;;;;;5135111;27;20227;-57
2022/04/03 08:15:10;;;;;;;10.23;7.80;;;3.10;81.70;;;;;;5136502;27;20203;-56
2022/04/03 08:17:38;;;;;;;12.02;9.07;;;3.20;82.30;;;;;;5136205;27;20705;-56
2022/04/03 08:20:08;;;;;;;13.35;8.88;;;3.20;82.20;;;;;;5136307;27;20206;-56
2022/04/03 08:22:35;;;;;;;11.80;8.68;;;3.30;82.20;;;;;;5135665;27;20202;-57
2022/04/03 08:25:02;;;;;;;10.60;8.73;;;3.30;82.00;;;;;;5136276;27;20221;-56
2022/04/03 08:27:42;;;;;;;11.90;9.27;;;3.40;82.00;;;;;;5134857;27;20692;-57
2022/04/03 08:30:10;;;;;;;10.68;9.05;;;3.50;81.30;;;;;;5136003;27;20324;-57
2022/04/03 08:32:37;;;;;;;10.27;8.50;;;3.50;81.20;;;;;;5135867;27;20230;-57
2022/04/03 08:35:07;;;;;;;11.88;8.27;;;3.50;81.00;;;;;;5136101;27;20675;-57
2022/04/03 08:37:34;;;;;;;11.80;8.88;;;3.50;81.80;;;;;;5135937;27;20718;-56
2022/04/03 08:40:01;;;;;;;11.10;9.63;;;3.50;81.30;;;;;;5135836;27;20680;-57
2022/04/03 08:42:28;;;;;;;16.50;9.88;;;3.60;81.60;;;;;;5134826;27;20544;-57
2022/04/03 08:44:54;;;;;;;10.27;8.77;;;3.70;81.40;;;;;;5135766;27;20206;-57
2022/04/03 08:47:23;;;;;;;10.60;9.00;;;3.70;80.20;;;;;;5135771;27;20560;-57
2022/04/03 08:49:50;;;;;;;10.25;8.90;;;3.60;79.20;;;;;;5135687;27;20541;-57
2022/04/03 08:52:19;;;;;;;9.27;8.32;;;3.50;80.30;;;;;;5135430;27;20696;-57
2022/04/03 08:54:46;;;;;;;10.27;8.00;;;3.60;80.80;;;;;;5135597;27;20222;-57
2022/04/03 08:57:13;;;;;;;10.48;9.27;;;3.50;80.10;;;;;;5134196;27;20661;-56
2022/04/03 08:59:39;;;;;;;13.77;10.63;;;3.60;80.70;;;;;;5135547;27;20222;-56
2022/04/03 09:02:06;;;;;;;12.00;10.25;;;3.70;81.10;;;;;;5135302;27;20619;-56
2022/04/03 09:04:33;;;;;;;9.82;8.55;;;3.90;80.70;;;;;;5135416;27;20668;-57
2022/04/03 09:07:01;;;;;;;11.52;8.73;;;4.00;79.70;;;;;;5135265;27;20673;-57
2022/04/03 09:09:29;;;;;;;9.80;8.80;;;4.10;79.40;;;;;;5135396;27;20234;-57
2022/04/03 09:12:12;;;;;;;12.88;8.70;;;4.10;78.70;;;;;;5133981;27;20234;-57
2022/04/03 09:14:46;;;;;;;10.23;8.73;;;4.20;79.50;;;;;;5133498;27;20206;-57
2022/04/03 09:17:13;;;;;;;11.65;8.05;;;4.20;79.30;;;;;;5135108;27;20198;-58
2022/04/03 09:19:40;;;;;;;8.93;8.02;;;4.10;77.40;;;;;;5135063;27;20210;-58
2022/04/03 09:22:08;;;;;;;10.85;8.23;;;4.10;77.70;;;;;;5135134;27;20234;-57
2022/04/03 09:24:47;;;;;;;9.07;8.25;;;4.10;77.00;;;;;;5135057;27;20203;-58
2022/04/03 09:27:14;;;;;;;10.60;8.85;;;3.90;77.60;;;;;;5133762;27;20266;-57
2022/04/03 09:29:45;;;;;;;9.98;8.63;;;4.00;78.80;;;;;;5134721;27;20237;-57
2022/04/03 09:32:12;;;;;;;11.98;8.80;;;3.90;77.30;;;;;;5134627;27;20252;-57
2022/04/03 09:34:40;;;;;;;10.15;9.20;;;3.60;78.10;;;;;;5134046;27;20570;-57
2022/04/03 09:37:06;;;;;;;9.40;8.52;;;3.20;78.10;;;;;;5134833;27;20661;-57
2022/04/03 09:39:35;;;;;;;9.75;8.82;;;3.20;80.10;;;;;;5134706;27;20194;-57
2022/04/03 09:42:04;;;;;;;9.35;8.45;;;3.10;80.70;;;;;;5133460;27;20306;-57
2022/04/03 09:44:33;;;;;;;9.20;8.30;;;3.10;80.30;;;;;;5134560;27;20289;-57
2022/04/03 09:47:21;;;;;;;9.02;8.13;;;3.30;80.30;;;;;;5134400;27;20330;-57
2022/04/03 09:49:55;;;;;;;10.20;9.20;;;3.40;80.50;;;;;;5134464;27;20202;-57
2022/04/03 09:52:43;;;;;;;9.65;8.75;;;3.60;80.20;;;;;;5134420;27;20225;-57
2022/04/03 09:55:19;;;;;;;9.60;8.52;;;3.70;79.40;;;;;;5134393;27;20488;-57
2022/04/03 09:57:47;;;;;;;9.00;8.10;;;3.80;79.80;;;;;;5133075;27;20259;-57
2022/04/03 10:00:27;;;;;;;8.80;7.72;;;3.90;79.50;;;;;;5134451;27;20209;-57
2022/04/03 10:02:59;;;;;;;9.32;8.25;;;3.80;79.30;;;;;;5134148;27;20206;-57
2022/04/03 10:05:28;;;;;;;9.18;8.02;;;3.80;78.60;;;;;;5134244;27;20211;-57
2022/04/03 10:07:56;;;;;;;9.90;8.90;;;3.90;79.40;;;;;;5134344;27;20289;-57
2022/04/03 10:10:24;;;;;;;9.10;8.35;;;4.00;79.00;;;;;;5134277;27;20310;-57
2022/04/03 10:12:51;;;;;;;9.45;8.30;;;4.10;79.20;;;;;;5132647;27;20230;-57
2022/04/03 10:15:18;;;;;;;9.05;8.13;;;4.10;78.50;;;;;;5134188;27;20199;-57
2022/04/03 10:17:45;;;;;;;9.82;8.93;;;4.20;78.40;;;;;;5133902;27;20264;-57
2022/04/03 10:20:14;;;;;;;8.60;7.80;;;4.10;77.50;;;;;;5133942;27;20202;-57
2022/04/03 10:22:43;;;;;;;9.57;8.77;;;4.00;77.60;;;;;;5134010;27;20246;-57
2022/04/03 10:25:14;;;;;;;9.63;8.73;;;3.90;76.70;;;;;;5134072;27;20249;-57
2022/04/03 10:27:45;;;;;;;9.60;8.65;;;3.70;78.10;;;;;;5132655;27;20202;-57
2022/04/03 10:30:16;;;;;;;10.05;8.70;;;3.60;78.20;;;;;;5133838;27;20227;-57
2022/04/03 10:32:56;;;;;;;10.75;8.90;;;3.70;79.00;;;;;;5133675;27;20230;-58
2022/04/03 10:35:23;;;;;;;9.43;8.25;;;3.70;78.80;;;;;;5133879;27;20202;-58
2022/04/03 10:38:01;;;;;;;8.82;8.00;;;3.70;79.10;;;;;;5133902;27;20285;-58
2022/04/03 10:40:32;;;;;;;9.23;7.47;;;3.80;79.10;;;;;;5133931;27;20202;-57
2022/04/03 10:43:02;;;;;;;7.20;6.50;;;3.70;78.10;;;;;;5132317;27;20201;-57
2022/04/03 10:45:30;;;;;;;7.70;6.90;;;3.70;78.10;;;;;;5138508;27;20209;-58
2022/04/03 10:48:30;;;;;;;7.65;6.95;;;3.60;76.70;;;;;;5140517;27;20289;-57
2022/04/03 10:51:06;;;;;;;10.38;7.50;;;3.60;78.00;;;;;;5140715;27;20194;-58
2022/04/03 10:53:35;;;;;;;7.95;7.15;;;3.70;78.20;;;;;;5140456;27;20233;-58
2022/04/03 10:56:07;;;;;;;7.38;6.70;;;3.70;77.80;;;;;;5139385;27;20293;-58
2022/04/03 10:58:47;;;;;;;7.28;6.60;;;3.70;78.10;;;;;;5140575;27;20203;-58
2022/04/03 11:01:25;;;;;;;7.30;6.60;;;3.70;78.00;;;;;;5140476;27;20198;-58
2022/04/03 11:03:58;;;;;;;8.35;7.65;;;3.80;78.60;;;;;;5140207;27;20661;-58
2022/04/03 11:06:30;;;;;;;8.52;7.68;;;3.80;78.40;;;;;;5140292;27;20210;-58
2022/04/03 11:09:08;;;;;;;8.48;7.68;;;3.40;77.30;;;;;;5140440;27;20632;-58
2022/04/03 11:11:40;;;;;;;8.40;7.50;;;3.50;78.50;;;;;;5139053;27;20668;-58
2022/04/03 11:14:10;;;;;;;7.80;7.10;;;3.60;79.20;;;;;;5140155;27;20313;-59
2022/04/03 11:16:54;;;;;;;10.02;6.90;;;3.90;79.70;;;;;;5140399;27;20206;-59
2022/04/03 11:19:35;;;;;;;7.82;6.80;;;4.20;79.90;;;;;;5140135;27;20213;-59
2022/04/03 11:22:03;;;;;;;7.22;6.63;;;4.40;78.30;;;;;;5140381;27;20564;-59
2022/04/03 11:24:33;;;;;;;7.10;6.40;;;4.80;78.30;;;;;;5140209;27;20198;-60
2022/04/03 11:27:00;;;;;;;6.82;5.60;;;5.20;76.60;;;;;;5138961;27;20205;-60
2022/04/03 11:29:29;;;;;;;5.38;4.90;;;6.50;77.90;;;;;;5140396;27;20201;-60
2022/04/03 11:31:57;;;;;;;7.25;6.65;;;8.50;74.90;;;;;;5140040;27;20235;-61
2022/04/03 11:34:29;;;;;;;8.50;7.80;;;10.40;60.60;;;;;;5140072;27;20234;-61
2022/04/03 11:36:57;;;;;;;8.55;8.05;;;11.30;59.50;;;;;;5140202;27;20210;-63
2022/04/03 11:39:31;;;;;;;9.32;8.52;;;12.40;62.90;;;;;;5140181;27;20212;-63
2022/04/03 11:42:01;;;;;;;8.25;7.75;;;13.20;61.30;;;;;;5138809;27;20199;-63
2022/04/03 11:44:30;;;;;;;9.32;8.65;;;13.10;60.00;;;;;;5140146;27;20213;-62
2022/04/03 11:46:56;;;;;;;9.65;8.85;;;12.40;59.60;;;;;;5140145;27;20202;-60
2022/04/03 11:49:25;;;;;;;10.82;10.02;;;11.40;60.60;;;;;;5139950;27;20297;-60
2022/04/03 11:51:55;;;;;;;9.02;8.43;;;10.50;61.70;;;;;;5140001;27;20206;-59
2022/04/03 11:54:25;;;;;;;8.30;7.70;;;9.80;64.10;;;;;;5139908;27;20338;-60
2022/04/03 11:56:59;;;;;;;9.32;8.65;;;8.90;60.90;;;;;;5135440;27;20195;-60
2022/04/03 11:59:26;;;;;;;10.10;9.40;;;7.90;64.00;;;;;;5136718;27;20199;-60
2022/04/03 12:01:54;;;;;;;9.77;9.10;;;7.20;66.30;;;;;;5136669;27;20207;-59
2022/04/03 12:04:23;;;;;;;9.77;9.07;;;6.60;68.40;;;;;;5136302;27;20665;-59
2022/04/03 12:06:51;;;;;;;9.88;9.07;;;6.20;69.50;;;;;;5136660;27;20195;-60
2022/04/03 12:09:21;;;;;;;9.10;8.50;;;6.10;69.80;;;;;;5136763;27;20629;-60
2022/04/03 12:11:51;;;;;;;9.35;8.65;;;5.80;70.70;;;;;;5135279;27;20209;-60
2022/04/03 12:14:24;;;;;;;9.05;8.45;;;5.70;70.30;;;;;;5136219;27;20692;-61
2022/04/03 12:16:58;;;;;;;10.13;9.30;;;5.30;72.00;;;;;;5136248;27;20305;-60
2022/04/03 12:19:27;;;;;;;8.95;8.35;;;5.10;72.30;;;;;;5136049;27;20202;-60
2022/04/03 12:21:56;;;;;;;9.30;8.45;;;4.70;73.50;;;;;;5136326;27;20202;-60
2022/04/03 12:24:25;;;;;;;8.77;8.15;;;4.80;73.90;;;;;;5136337;27;20574;-62
2022/04/03 12:26:55;;;;;;;9.77;8.88;;;4.80;73.70;;;;;;5135007;27;20275;-60
2022/04/03 12:29:23;;;;;;;9.75;8.82;;;4.70;73.40;;;;;;5136083;27;20195;-60
2022/04/03 12:32:05;;;;;;;9.13;8.38;;;4.80;73.00;;;;;;5135891;27;20230;-60
2022/04/03 12:34:33;;;;;;;9.35;8.65;;;4.80;73.10;;;;;;5135866;27;20230;-60
2022/04/03 12:37:02;;;;;;;8.90;8.20;;;4.80;72.10;;;;;;5136012;27;20198;-59
2022/04/03 12:39:37;;;;;;;9.60;8.90;;;4.40;72.00;;;;;;5135997;27;20202;-60
2022/04/03 12:42:16;;;;;;;9.73;8.60;;;4.10;73.10;;;;;;5134480;27;20840;-60
2022/04/03 12:44:45;;;;;;;8.75;8.07;;;4.20;73.70;;;;;;5135797;27;20207;-60
2022/04/03 12:47:15;;;;;;;8.52;7.72;;;4.30;73.90;;;;;;5135870;27;20234;-60
2022/04/03 12:49:42;;;;;;;9.93;8.93;;;4.40;74.00;;;;;;5135565;27;20287;-61